sensor_id;sensor_type;location;lat;lon;timestamp;P1;durP1;ratioP1;P2;durP2;ratioP2
8312;SDS011;4194;43.408;24.626;2022-08-21T00:01:37;7.27;;;4.37;;
8312;SDS011;4194;43.408;24.626;2022-08-21T00:04:06;7.43;;;4.60;;
8312;SDS011;4194;43.408;24.626;2022-08-21T00:06:33;9.87;;;5.20;;
8312;SDS011;4194;43.408;24.626;2022-08-21T00:09:01;9.80;;;5.37;;
8312;SDS011;4194;43.408;24.626;2022-08-21T00:11:27;10.37;;;5.57;;
8312;SDS011;4194;43.408;24.626;2022-08-21T00:13:54;6.23;;;4.80;;
8312;SDS011;4194;43.408;24.626;2022-08-21T00:16:20;13.20;;;5.37;;
8312;SDS011;4194;43.408;24.626;2022-08-21T00:18:45;8.60;;;5.63;;
8312;SDS011;4194;43.408;24.626;2022-08-21T00:21:12;8.27;;;5.07;;
8312;SDS011;4194;43.408;24.626;2022-08-21T00:23:38;9.90;;;5.77;;
8312;SDS011;4194;43.408;24.626;2022-08-21T00:26:04;10.43;;;5.40;;
8312;SDS011;4194;43.408;24.626;2022-08-21T00:28:31;7.97;;;5.63;;
8312;SDS011;4194;43.408;24.626;2022-08-21T00:30:57;9.03;;;5.30;;
8312;SDS011;4194;43.408;24.626;2022-08-21T00:33:23;7.43;;;5.07;;
8312;SDS011;4194;43.408;24.626;2022-08-21T00:35:49;5.90;;;4.13;;
8312;SDS011;4194;43.408;24.626;2022-08-21T00:38:15;7.93;;;4.73;;
8312;SDS011;4194;43.408;24.626;2022-08-21T00:40:43;5.80;;;4.00;;
8312;SDS011;4194;43.408;24.626;2022-08-21T00:43:09;7.90;;;4.20;;
8312;SDS011;4194;43.408;24.626;2022-08-21T00:45:37;8.00;;;4.47;;
8312;SDS011;4194;43.408;24.626;2022-08-21T00:48:03;9.63;;;4.60;;
8312;SDS011;4194;43.408;24.626;2022-08-21T00:50:30;10.90;;;4.90;;
8312;SDS011;4194;43.408;24.626;2022-08-21T00:52:59;6.80;;;4.50;;
8312;SDS011;4194;43.408;24.626;2022-08-21T00:55:26;12.67;;;5.27;;
8312;SDS011;4194;43.408;24.626;2022-08-21T00:57:55;6.63;;;4.27;;
8312;SDS011;4194;43.408;24.626;2022-08-21T01:00:27;8.27;;;5.07;;
8312;SDS011;4194;43.408;24.626;2022-08-21T01:02:57;9.70;;;5.27;;
8312;SDS011;4194;43.408;24.626;2022-08-21T01:05:24;8.80;;;5.20;;
8312;SDS011;4194;43.408;24.626;2022-08-21T01:07:51;8.13;;;5.10;;
8312;SDS011;4194;43.408;24.626;2022-08-21T01:10:18;8.83;;;5.23;;
8312;SDS011;4194;43.408;24.626;2022-08-21T01:12:44;7.87;;;4.97;;
8312;SDS011;4194;43.408;24.626;2022-08-21T01:15:10;8.47;;;4.80;;
8312;SDS011;4194;43.408;24.626;2022-08-21T01:17:37;9.37;;;5.60;;
8312;SDS011;4194;43.408;24.626;2022-08-21T01:20:04;6.90;;;4.37;;
8312;SDS011;4194;43.408;24.626;2022-08-21T01:22:32;9.30;;;5.60;;
8312;SDS011;4194;43.408;24.626;2022-08-21T01:24:59;8.57;;;5.17;;
8312;SDS011;4194;43.408;24.626;2022-08-21T01:27:24;7.43;;;5.23;;
8312;SDS011;4194;43.408;24.626;2022-08-21T01:29:54;7.73;;;6.10;;
8312;SDS011;4194;43.408;24.626;2022-08-21T01:32:22;8.73;;;6.10;;
8312;SDS011;4194;43.408;24.626;2022-08-21T01:34:49;7.33;;;5.83;;
8312;SDS011;4194;43.408;24.626;2022-08-21T01:37:15;8.07;;;5.87;;
8312;SDS011;4194;43.408;24.626;2022-08-21T01:39:42;11.10;;;6.20;;
8312;SDS011;4194;43.408;24.626;2022-08-21T01:42:08;8.50;;;5.73;;
8312;SDS011;4194;43.408;24.626;2022-08-21T01:44:34;6.97;;;4.67;;
8312;SDS011;4194;43.408;24.626;2022-08-21T01:47:01;6.53;;;5.50;;
8312;SDS011;4194;43.408;24.626;2022-08-21T01:49:30;8.87;;;5.37;;
8312;SDS011;4194;43.408;24.626;2022-08-21T01:51:55;11.40;;;5.57;;
8312;SDS011;4194;43.408;24.626;2022-08-21T01:54:21;7.57;;;5.33;;
8312;SDS011;4194;43.408;24.626;2022-08-21T01:56:48;12.10;;;5.87;;
8312;SDS011;4194;43.408;24.626;2022-08-21T01:59:16;9.60;;;6.13;;
8312;SDS011;4194;43.408;24.626;2022-08-21T02:01:42;8.67;;;5.60;;
8312;SDS011;4194;43.408;24.626;2022-08-21T02:04:09;8.50;;;5.70;;
8312;SDS011;4194;43.408;24.626;2022-08-21T02:06:36;11.47;;;6.20;;
8312;SDS011;4194;43.408;24.626;2022-08-21T02:09:06;12.53;;;7.03;;
8312;SDS011;4194;43.408;24.626;2022-08-21T02:11:33;12.27;;;6.43;;
8312;SDS011;4194;43.408;24.626;2022-08-21T02:13:59;8.70;;;6.50;;
8312;SDS011;4194;43.408;24.626;2022-08-21T02:16:25;8.87;;;7.43;;
8312;SDS011;4194;43.408;24.626;2022-08-21T02:18:50;9.73;;;7.43;;
8312;SDS011;4194;43.408;24.626;2022-08-21T02:21:16;12.00;;;7.63;;
8312;SDS011;4194;43.408;24.626;2022-08-21T02:23:42;12.60;;;8.77;;
8312;SDS011;4194;43.408;24.626;2022-08-21T02:26:09;15.97;;;10.30;;
8312;SDS011;4194;43.408;24.626;2022-08-21T02:28:35;15.00;;;10.47;;
8312;SDS011;4194;43.408;24.626;2022-08-21T02:31:01;15.93;;;11.73;;
8312;SDS011;4194;43.408;24.626;2022-08-21T02:33:28;13.03;;;11.27;;
8312;SDS011;4194;43.408;24.626;2022-08-21T02:35:54;16.70;;;12.20;;
8312;SDS011;4194;43.408;24.626;2022-08-21T02:38:25;17.57;;;11.70;;
8312;SDS011;4194;43.408;24.626;2022-08-21T02:40:53;17.00;;;13.27;;
8312;SDS011;4194;43.408;24.626;2022-08-21T02:43:20;18.57;;;12.93;;
8312;SDS011;4194;43.408;24.626;2022-08-21T02:45:48;22.30;;;14.57;;
8312;SDS011;4194;43.408;24.626;2022-08-21T02:48:16;15.73;;;13.97;;
8312;SDS011;4194;43.408;24.626;2022-08-21T02:50:50;17.10;;;13.43;;
8312;SDS011;4194;43.408;24.626;2022-08-21T02:53:21;17.17;;;12.80;;
8312;SDS011;4194;43.408;24.626;2022-08-21T02:55:48;18.50;;;13.23;;
8312;SDS011;4194;43.408;24.626;2022-08-21T02:58:22;16.27;;;13.23;;
8312;SDS011;4194;43.408;24.626;2022-08-21T03:00:50;21.73;;;12.37;;
8312;SDS011;4194;43.408;24.626;2022-08-21T03:03:17;17.13;;;12.83;;
8312;SDS011;4194;43.408;24.626;2022-08-21T03:05:43;14.03;;;12.27;;
8312;SDS011;4194;43.408;24.626;2022-08-21T03:08:11;19.63;;;13.20;;
8312;SDS011;4194;43.408;24.626;2022-08-21T03:10:39;16.07;;;12.97;;
8312;SDS011;4194;43.408;24.626;2022-08-21T03:13:05;18.57;;;13.47;;
8312;SDS011;4194;43.408;24.626;2022-08-21T03:15:32;17.43;;;12.93;;
8312;SDS011;4194;43.408;24.626;2022-08-21T03:17:58;16.13;;;11.73;;
8312;SDS011;4194;43.408;24.626;2022-08-21T03:20:25;15.37;;;10.53;;
8312;SDS011;4194;43.408;24.626;2022-08-21T03:22:52;18.90;;;11.93;;
8312;SDS011;4194;43.408;24.626;2022-08-21T03:25:19;16.17;;;10.77;;
8312;SDS011;4194;43.408;24.626;2022-08-21T03:27:49;13.73;;;10.67;;
8312;SDS011;4194;43.408;24.626;2022-08-21T03:30:16;12.53;;;10.33;;
8312;SDS011;4194;43.408;24.626;2022-08-21T03:32:45;12.87;;;11.23;;
8312;SDS011;4194;43.408;24.626;2022-08-21T03:35:11;18.37;;;10.87;;
8312;SDS011;4194;43.408;24.626;2022-08-21T03:37:38;13.07;;;9.33;;
8312;SDS011;4194;43.408;24.626;2022-08-21T03:40:05;14.63;;;9.63;;
8312;SDS011;4194;43.408;24.626;2022-08-21T03:42:33;13.00;;;11.23;;
8312;SDS011;4194;43.408;24.626;2022-08-21T03:44:58;15.33;;;10.40;;
8312;SDS011;4194;43.408;24.626;2022-08-21T03:47:24;11.53;;;9.30;;
8312;SDS011;4194;43.408;24.626;2022-08-21T03:49:50;11.37;;;8.97;;
8312;SDS011;4194;43.408;24.626;2022-08-21T03:52:16;14.03;;;7.90;;
8312;SDS011;4194;43.408;24.626;2022-08-21T03:54:42;13.60;;;7.03;;
8312;SDS011;4194;43.408;24.626;2022-08-21T03:57:09;14.23;;;6.60;;
8312;SDS011;4194;43.408;24.626;2022-08-21T03:59:35;9.37;;;6.77;;
8312;SDS011;4194;43.408;24.626;2022-08-21T04:02:02;9.70;;;6.87;;
8312;SDS011;4194;43.408;24.626;2022-08-21T04:04:30;10.77;;;6.87;;
8312;SDS011;4194;43.408;24.626;2022-08-21T04:06:55;11.50;;;6.80;;
8312;SDS011;4194;43.408;24.626;2022-08-21T04:09:22;10.23;;;6.87;;
8312;SDS011;4194;43.408;24.626;2022-08-21T04:11:48;14.90;;;8.23;;
8312;SDS011;4194;43.408;24.626;2022-08-21T04:14:14;9.27;;;6.80;;
8312;SDS011;4194;43.408;24.626;2022-08-21T04:16:42;9.73;;;7.13;;
8312;SDS011;4194;43.408;24.626;2022-08-21T04:19:08;12.17;;;7.20;;
8312;SDS011;4194;43.408;24.626;2022-08-21T04:21:38;11.93;;;7.07;;
8312;SDS011;4194;43.408;24.626;2022-08-21T04:24:04;13.13;;;6.90;;
8312;SDS011;4194;43.408;24.626;2022-08-21T04:26:32;12.43;;;6.40;;
8312;SDS011;4194;43.408;24.626;2022-08-21T04:28:59;13.50;;;7.17;;
8312;SDS011;4194;43.408;24.626;2022-08-21T04:31:25;9.37;;;6.03;;
8312;SDS011;4194;43.408;24.626;2022-08-21T04:33:53;14.50;;;6.07;;
8312;SDS011;4194;43.408;24.626;2022-08-21T04:36:19;11.20;;;5.90;;
8312;SDS011;4194;43.408;24.626;2022-08-21T04:38:45;24.13;;;6.27;;
8312;SDS011;4194;43.408;24.626;2022-08-21T04:41:11;8.93;;;6.07;;
8312;SDS011;4194;43.408;24.626;2022-08-21T04:43:37;9.93;;;6.03;;
8312;SDS011;4194;43.408;24.626;2022-08-21T04:46:04;13.23;;;5.87;;
8312;SDS011;4194;43.408;24.626;2022-08-21T04:48:30;12.27;;;6.23;;
8312;SDS011;4194;43.408;24.626;2022-08-21T04:53:37;9.90;;;6.77;;
8312;SDS011;4194;43.408;24.626;2022-08-21T04:56:19;10.23;;;6.37;;
8312;SDS011;4194;43.408;24.626;2022-08-21T04:58:46;8.73;;;5.90;;
8312;SDS011;4194;43.408;24.626;2022-08-21T05:01:15;8.40;;;6.40;;
8312;SDS011;4194;43.408;24.626;2022-08-21T05:03:45;12.07;;;5.60;;
8312;SDS011;4194;43.408;24.626;2022-08-21T05:06:13;10.03;;;6.13;;
8312;SDS011;4194;43.408;24.626;2022-08-21T05:08:42;13.13;;;8.53;;
8312;SDS011;4194;43.408;24.626;2022-08-21T05:11:08;16.03;;;10.37;;
8312;SDS011;4194;43.408;24.626;2022-08-21T05:13:35;17.77;;;9.23;;
8312;SDS011;4194;43.408;24.626;2022-08-21T05:16:00;11.30;;;8.70;;
8312;SDS011;4194;43.408;24.626;2022-08-21T05:18:26;17.53;;;9.67;;
8312;SDS011;4194;43.408;24.626;2022-08-21T05:20:52;12.50;;;9.67;;
8312;SDS011;4194;43.408;24.626;2022-08-21T05:23:17;19.17;;;10.93;;
8312;SDS011;4194;43.408;24.626;2022-08-21T05:25:43;14.13;;;10.10;;
8312;SDS011;4194;43.408;24.626;2022-08-21T05:28:09;13.20;;;9.33;;
8312;SDS011;4194;43.408;24.626;2022-08-21T05:30:36;15.10;;;9.03;;
8312;SDS011;4194;43.408;24.626;2022-08-21T05:33:02;10.57;;;8.10;;
8312;SDS011;4194;43.408;24.626;2022-08-21T05:35:30;14.97;;;8.67;;
8312;SDS011;4194;43.408;24.626;2022-08-21T05:37:57;12.63;;;9.47;;
8312;SDS011;4194;43.408;24.626;2022-08-21T05:40:23;14.40;;;9.87;;
8312;SDS011;4194;43.408;24.626;2022-08-21T05:42:50;11.23;;;9.20;;
8312;SDS011;4194;43.408;24.626;2022-08-21T05:45:17;16.43;;;9.77;;
8312;SDS011;4194;43.408;24.626;2022-08-21T05:47:43;12.03;;;8.47;;
8312;SDS011;4194;43.408;24.626;2022-08-21T05:50:09;13.33;;;8.07;;
8312;SDS011;4194;43.408;24.626;2022-08-21T05:52:35;12.33;;;8.40;;
8312;SDS011;4194;43.408;24.626;2022-08-21T05:55:01;8.90;;;7.23;;
8312;SDS011;4194;43.408;24.626;2022-08-21T05:57:27;15.20;;;9.83;;
8312;SDS011;4194;43.408;24.626;2022-08-21T05:59:53;14.70;;;11.87;;
8312;SDS011;4194;43.408;24.626;2022-08-21T06:02:19;13.53;;;10.73;;
8312;SDS011;4194;43.408;24.626;2022-08-21T06:04:45;14.07;;;10.50;;
8312;SDS011;4194;43.408;24.626;2022-08-21T06:07:11;14.90;;;10.73;;
8312;SDS011;4194;43.408;24.626;2022-08-21T06:09:38;16.43;;;10.90;;
8312;SDS011;4194;43.408;24.626;2022-08-21T06:12:08;18.13;;;10.37;;
8312;SDS011;4194;43.408;24.626;2022-08-21T06:14:35;15.80;;;11.60;;
8312;SDS011;4194;43.408;24.626;2022-08-21T06:17:02;18.23;;;11.43;;
8312;SDS011;4194;43.408;24.626;2022-08-21T06:19:28;19.37;;;11.13;;
8312;SDS011;4194;43.408;24.626;2022-08-21T06:21:54;16.80;;;10.63;;
8312;SDS011;4194;43.408;24.626;2022-08-21T06:24:19;12.77;;;10.47;;
8312;SDS011;4194;43.408;24.626;2022-08-21T06:26:45;21.43;;;11.40;;
8312;SDS011;4194;43.408;24.626;2022-08-21T06:29:12;14.20;;;9.77;;
8312;SDS011;4194;43.408;24.626;2022-08-21T06:31:41;17.07;;;9.53;;
8312;SDS011;4194;43.408;24.626;2022-08-21T06:34:08;14.97;;;10.07;;
8312;SDS011;4194;43.408;24.626;2022-08-21T06:36:33;14.50;;;8.63;;
8312;SDS011;4194;43.408;24.626;2022-08-21T06:38:59;19.57;;;9.37;;
8312;SDS011;4194;43.408;24.626;2022-08-21T06:41:25;14.70;;;8.97;;
8312;SDS011;4194;43.408;24.626;2022-08-21T06:43:51;15.83;;;9.23;;
8312;SDS011;4194;43.408;24.626;2022-08-21T06:46:17;11.13;;;9.00;;
8312;SDS011;4194;43.408;24.626;2022-08-21T06:48:43;14.67;;;9.47;;
8312;SDS011;4194;43.408;24.626;2022-08-21T06:51:09;19.73;;;10.13;;
8312;SDS011;4194;43.408;24.626;2022-08-21T06:53:35;11.20;;;8.93;;
8312;SDS011;4194;43.408;24.626;2022-08-21T06:56:01;11.53;;;9.43;;
8312;SDS011;4194;43.408;24.626;2022-08-21T06:58:27;14.33;;;9.50;;
8312;SDS011;4194;43.408;24.626;2022-08-21T07:00:53;11.93;;;8.53;;
8312;SDS011;4194;43.408;24.626;2022-08-21T07:03:23;11.43;;;8.03;;
8312;SDS011;4194;43.408;24.626;2022-08-21T07:05:55;12.00;;;8.13;;
8312;SDS011;4194;43.408;24.626;2022-08-21T07:08:23;10.47;;;6.63;;
8312;SDS011;4194;43.408;24.626;2022-08-21T07:10:49;11.47;;;7.27;;
8312;SDS011;4194;43.408;24.626;2022-08-21T07:13:15;13.47;;;7.67;;
8312;SDS011;4194;43.408;24.626;2022-08-21T07:15:42;9.60;;;7.73;;
8312;SDS011;4194;43.408;24.626;2022-08-21T07:18:08;10.57;;;7.33;;
8312;SDS011;4194;43.408;24.626;2022-08-21T07:20:34;8.60;;;6.20;;
8312;SDS011;4194;43.408;24.626;2022-08-21T07:23:01;15.30;;;6.57;;
8312;SDS011;4194;43.408;24.626;2022-08-21T07:25:29;13.00;;;7.20;;
8312;SDS011;4194;43.408;24.626;2022-08-21T07:27:56;10.10;;;7.37;;
8312;SDS011;4194;43.408;24.626;2022-08-21T07:30:22;12.67;;;7.50;;
8312;SDS011;4194;43.408;24.626;2022-08-21T07:32:48;13.23;;;8.40;;
8312;SDS011;4194;43.408;24.626;2022-08-21T07:35:15;9.43;;;7.00;;
8312;SDS011;4194;43.408;24.626;2022-08-21T07:37:41;8.63;;;7.00;;
8312;SDS011;4194;43.408;24.626;2022-08-21T07:40:08;11.77;;;7.77;;
8312;SDS011;4194;43.408;24.626;2022-08-21T07:42:34;13.30;;;7.30;;
8312;SDS011;4194;43.408;24.626;2022-08-21T07:45:04;10.43;;;8.10;;
8312;SDS011;4194;43.408;24.626;2022-08-21T07:47:30;10.57;;;7.20;;
8312;SDS011;4194;43.408;24.626;2022-08-21T07:49:56;14.47;;;8.10;;
8312;SDS011;4194;43.408;24.626;2022-08-21T07:52:22;13.83;;;7.40;;
8312;SDS011;4194;43.408;24.626;2022-08-21T07:54:48;15.37;;;8.27;;
8312;SDS011;4194;43.408;24.626;2022-08-21T07:57:13;9.87;;;6.77;;
8312;SDS011;4194;43.408;24.626;2022-08-21T07:59:39;13.03;;;8.00;;
8312;SDS011;4194;43.408;24.626;2022-08-21T08:02:05;9.20;;;6.67;;
8312;SDS011;4194;43.408;24.626;2022-08-21T08:04:31;11.97;;;7.20;;
8312;SDS011;4194;43.408;24.626;2022-08-21T08:06:57;11.93;;;6.17;;
8312;SDS011;4194;43.408;24.626;2022-08-21T08:09:22;11.80;;;5.90;;
8312;SDS011;4194;43.408;24.626;2022-08-21T08:11:48;12.77;;;6.93;;
8312;SDS011;4194;43.408;24.626;2022-08-21T08:14:14;11.17;;;6.40;;
8312;SDS011;4194;43.408;24.626;2022-08-21T08:16:40;11.23;;;6.00;;
8312;SDS011;4194;43.408;24.626;2022-08-21T08:19:06;9.97;;;6.97;;
8312;SDS011;4194;43.408;24.626;2022-08-21T08:21:32;8.37;;;6.27;;
8312;SDS011;4194;43.408;24.626;2022-08-21T08:23:58;9.53;;;6.37;;
8312;SDS011;4194;43.408;24.626;2022-08-21T08:26:25;11.63;;;8.10;;
8312;SDS011;4194;43.408;24.626;2022-08-21T08:28:51;13.33;;;7.47;;
8312;SDS011;4194;43.408;24.626;2022-08-21T08:31:17;9.43;;;6.70;;
8312;SDS011;4194;43.408;24.626;2022-08-21T08:33:43;8.57;;;6.67;;
8312;SDS011;4194;43.408;24.626;2022-08-21T08:36:13;7.93;;;6.33;;
8312;SDS011;4194;43.408;24.626;2022-08-21T08:38:42;10.17;;;6.13;;
8312;SDS011;4194;43.408;24.626;2022-08-21T08:41:15;8.60;;;6.87;;
8312;SDS011;4194;43.408;24.626;2022-08-21T08:43:47;9.40;;;7.00;;
8312;SDS011;4194;43.408;24.626;2022-08-21T08:46:15;7.93;;;6.20;;
8312;SDS011;4194;43.408;24.626;2022-08-21T08:51:26;9.33;;;6.83;;
8312;SDS011;4194;43.408;24.626;2022-08-21T08:53:58;9.80;;;6.63;;
8312;SDS011;4194;43.408;24.626;2022-08-21T08:56:29;8.50;;;6.20;;
8312;SDS011;4194;43.408;24.626;2022-08-21T08:59:02;12.10;;;6.90;;
8312;SDS011;4194;43.408;24.626;2022-08-21T09:01:28;9.47;;;6.70;;
8312;SDS011;4194;43.408;24.626;2022-08-21T09:03:54;9.47;;;6.67;;
8312;SDS011;4194;43.408;24.626;2022-08-21T09:20:23;11.53;;;6.27;;
8312;SDS011;4194;43.408;24.626;2022-08-21T09:28:26;8.27;;;6.80;;
8312;SDS011;4194;43.408;24.626;2022-08-21T09:30:58;9.53;;;6.60;;
8312;SDS011;4194;43.408;24.626;2022-08-21T09:33:27;7.93;;;6.73;;
8312;SDS011;4194;43.408;24.626;2022-08-21T09:35:54;11.13;;;6.17;;
8312;SDS011;4194;43.408;24.626;2022-08-21T09:38:25;10.30;;;6.30;;
8312;SDS011;4194;43.408;24.626;2022-08-21T09:41:02;8.53;;;6.47;;
8312;SDS011;4194;43.408;24.626;2022-08-21T09:43:34;8.23;;;5.63;;
8312;SDS011;4194;43.408;24.626;2022-08-21T09:46:02;10.00;;;5.90;;
8312;SDS011;4194;43.408;24.626;2022-08-21T09:48:52;9.83;;;5.90;;
8312;SDS011;4194;43.408;24.626;2022-08-21T09:51:24;9.80;;;6.37;;
8312;SDS011;4194;43.408;24.626;2022-08-21T09:56:32;6.97;;;5.27;;
8312;SDS011;4194;43.408;24.626;2022-08-21T10:01:52;9.60;;;6.00;;
8312;SDS011;4194;43.408;24.626;2022-08-21T10:04:20;9.80;;;6.17;;
8312;SDS011;4194;43.408;24.626;2022-08-21T10:06:48;10.87;;;6.53;;
8312;SDS011;4194;43.408;24.626;2022-08-21T10:09:16;9.70;;;6.27;;
8312;SDS011;4194;43.408;24.626;2022-08-21T10:11:52;7.97;;;6.00;;
8312;SDS011;4194;43.408;24.626;2022-08-21T10:17:17;7.83;;;6.10;;
8312;SDS011;4194;43.408;24.626;2022-08-21T10:20:28;8.20;;;6.33;;
8312;SDS011;4194;43.408;24.626;2022-08-21T10:26:02;9.27;;;6.33;;
8312;SDS011;4194;43.408;24.626;2022-08-21T10:31:21;10.67;;;5.37;;
8312;SDS011;4194;43.408;24.626;2022-08-21T10:52:09;7.88;;;5.63;;
8312;SDS011;4194;43.408;24.626;2022-08-21T10:55:00;7.03;;;5.53;;
8312;SDS011;4194;43.408;24.626;2022-08-21T11:00:13;7.72;;;5.20;;
8312;SDS011;4194;43.408;24.626;2022-08-21T11:05:21;5.57;;;4.80;;
8312;SDS011;4194;43.408;24.626;2022-08-21T11:08:04;6.05;;;5.13;;
8312;SDS011;4194;43.408;24.626;2022-08-21T11:10:46;7.00;;;5.30;;
8312;SDS011;4194;43.408;24.626;2022-08-21T11:16:18;11.60;;;5.78;;
8312;SDS011;4194;43.408;24.626;2022-08-21T11:18:58;8.55;;;5.40;;
8312;SDS011;4194;43.408;24.626;2022-08-21T11:21:52;6.80;;;5.00;;
8312;SDS011;4194;43.408;24.626;2022-08-21T11:24:42;9.07;;;5.07;;
8312;SDS011;4194;43.408;24.626;2022-08-21T11:29:54;7.38;;;4.65;;
8312;SDS011;4194;43.408;24.626;2022-08-21T11:37:53;12.88;;;5.07;;
8312;SDS011;4194;43.408;24.626;2022-08-21T11:45:52;7.13;;;3.72;;
8312;SDS011;4194;43.408;24.626;2022-08-21T11:51:13;6.05;;;3.95;;
8312;SDS011;4194;43.408;24.626;2022-08-21T11:56:38;7.90;;;3.58;;
8312;SDS011;4194;43.408;24.626;2022-08-21T11:59:14;7.70;;;4.03;;
8312;SDS011;4194;43.408;24.626;2022-08-21T12:01:46;7.22;;;3.67;;
8312;SDS011;4194;43.408;24.626;2022-08-21T12:04:22;6.63;;;3.72;;
8312;SDS011;4194;43.408;24.626;2022-08-21T12:09:57;6.50;;;4.05;;
8312;SDS011;4194;43.408;24.626;2022-08-21T12:12:26;7.07;;;3.70;;
8312;SDS011;4194;43.408;24.626;2022-08-21T12:17:40;6.03;;;3.97;;
8312;SDS011;4194;43.408;24.626;2022-08-21T12:20:16;4.82;;;3.40;;
8312;SDS011;4194;43.408;24.626;2022-08-21T12:22:47;7.45;;;3.65;;
8312;SDS011;4194;43.408;24.626;2022-08-21T12:25:16;5.63;;;3.63;;
8312;SDS011;4194;43.408;24.626;2022-08-21T12:27:52;9.13;;;4.35;;
8312;SDS011;4194;43.408;24.626;2022-08-21T12:33:27;5.47;;;3.58;;
8312;SDS011;4194;43.408;24.626;2022-08-21T12:35:47;4.07;;;3.65;;
8312;SDS011;4194;43.408;24.626;2022-08-21T12:40:50;4.80;;;3.55;;
8312;SDS011;4194;43.408;24.626;2022-08-21T12:43:20;8.85;;;4.18;;
8312;SDS011;4194;43.408;24.626;2022-08-21T12:45:54;10.02;;;3.97;;
8312;SDS011;4194;43.408;24.626;2022-08-21T12:48:28;6.95;;;3.58;;
8312;SDS011;4194;43.408;24.626;2022-08-21T12:56:04;5.10;;;3.28;;
8312;SDS011;4194;43.408;24.626;2022-08-21T12:58:34;4.55;;;3.38;;
8312;SDS011;4194;43.408;24.626;2022-08-21T13:01:05;6.47;;;3.90;;
8312;SDS011;4194;43.408;24.626;2022-08-21T13:03:35;6.32;;;3.65;;
8312;SDS011;4194;43.408;24.626;2022-08-21T13:06:03;7.07;;;3.35;;
8312;SDS011;4194;43.408;24.626;2022-08-21T13:08:30;8.25;;;3.53;;
8312;SDS011;4194;43.408;24.626;2022-08-21T13:11:00;9.27;;;3.45;;
8312;SDS011;4194;43.408;24.626;2022-08-21T13:13:30;9.32;;;3.70;;
8312;SDS011;4194;43.408;24.626;2022-08-21T13:15:57;4.35;;;3.65;;
8312;SDS011;4194;43.408;24.626;2022-08-21T13:18:26;10.55;;;3.70;;
8312;SDS011;4194;43.408;24.626;2022-08-21T13:21:11;9.48;;;3.95;;
8312;SDS011;4194;43.408;24.626;2022-08-21T13:23:38;10.65;;;4.00;;
8312;SDS011;4194;43.408;24.626;2022-08-21T13:26:18;7.65;;;3.75;;
8312;SDS011;4194;43.408;24.626;2022-08-21T13:28:45;7.32;;;4.30;;
8312;SDS011;4194;43.408;24.626;2022-08-21T13:31:15;4.63;;;3.50;;
8312;SDS011;4194;43.408;24.626;2022-08-21T13:33:45;5.93;;;3.58;;
8312;SDS011;4194;43.408;24.626;2022-08-21T13:36:16;6.95;;;3.50;;
8312;SDS011;4194;43.408;24.626;2022-08-21T13:38:45;10.10;;;4.18;;
8312;SDS011;4194;43.408;24.626;2022-08-21T13:41:31;7.40;;;3.72;;
8312;SDS011;4194;43.408;24.626;2022-08-21T13:44:00;8.85;;;3.78;;
8312;SDS011;4194;43.408;24.626;2022-08-21T13:46:29;9.57;;;3.67;;
8312;SDS011;4194;43.408;24.626;2022-08-21T13:48:56;10.98;;;4.50;;
8312;SDS011;4194;43.408;24.626;2022-08-21T13:51:24;7.07;;;3.83;;
8312;SDS011;4194;43.408;24.626;2022-08-21T13:53:50;6.00;;;3.47;;
8312;SDS011;4194;43.408;24.626;2022-08-21T13:58:54;7.90;;;4.15;;
8312;SDS011;4194;43.408;24.626;2022-08-21T14:01:23;5.80;;;3.78;;
8312;SDS011;4194;43.408;24.626;2022-08-21T14:03:54;7.80;;;4.10;;
8312;SDS011;4194;43.408;24.626;2022-08-21T14:06:33;6.70;;;3.80;;
8312;SDS011;4194;43.408;24.626;2022-08-21T14:09:07;7.83;;;3.50;;
8312;SDS011;4194;43.408;24.626;2022-08-21T14:11:40;6.37;;;3.97;;
8312;SDS011;4194;43.408;24.626;2022-08-21T14:14:28;8.07;;;3.73;;
8312;SDS011;4194;43.408;24.626;2022-08-21T14:16:56;6.60;;;3.50;;
8312;SDS011;4194;43.408;24.626;2022-08-21T14:19:27;6.63;;;3.90;;
8312;SDS011;4194;43.408;24.626;2022-08-21T14:21:54;6.80;;;3.73;;
8312;SDS011;4194;43.408;24.626;2022-08-21T14:27:10;9.83;;;3.63;;
8312;SDS011;4194;43.408;24.626;2022-08-21T14:29:38;6.73;;;3.77;;
8312;SDS011;4194;43.408;24.626;2022-08-21T14:32:11;9.50;;;4.03;;
8312;SDS011;4194;43.408;24.626;2022-08-21T14:34:45;9.13;;;3.70;;
8312;SDS011;4194;43.408;24.626;2022-08-21T14:37:10;6.70;;;3.47;;
8312;SDS011;4194;43.408;24.626;2022-08-21T14:39:36;8.00;;;3.63;;
8312;SDS011;4194;43.408;24.626;2022-08-21T14:42:02;6.40;;;3.20;;
8312;SDS011;4194;43.408;24.626;2022-08-21T14:44:28;6.07;;;3.20;;
8312;SDS011;4194;43.408;24.626;2022-08-21T14:46:54;7.67;;;3.30;;
8312;SDS011;4194;43.408;24.626;2022-08-21T14:49:21;4.63;;;2.53;;
8312;SDS011;4194;43.408;24.626;2022-08-21T14:51:47;9.82;;;3.78;;
8312;SDS011;4194;43.408;24.626;2022-08-21T14:54:18;6.07;;;3.80;;
8312;SDS011;4194;43.408;24.626;2022-08-21T14:56:44;5.10;;;3.88;;
8312;SDS011;4194;43.408;24.626;2022-08-21T14:59:10;8.82;;;3.35;;
8312;SDS011;4194;43.408;24.626;2022-08-21T15:01:36;7.30;;;3.72;;
8312;SDS011;4194;43.408;24.626;2022-08-21T15:04:04;7.78;;;3.65;;
8312;SDS011;4194;43.408;24.626;2022-08-21T15:06:30;11.77;;;4.45;;
8312;SDS011;4194;43.408;24.626;2022-08-21T15:08:56;6.28;;;3.47;;
8312;SDS011;4194;43.408;24.626;2022-08-21T15:11:22;6.07;;;3.60;;
8312;SDS011;4194;43.408;24.626;2022-08-21T15:13:51;9.23;;;4.87;;
8312;SDS011;4194;43.408;24.626;2022-08-21T15:16:22;8.03;;;3.67;;
8312;SDS011;4194;43.408;24.626;2022-08-21T15:18:48;8.17;;;4.33;;
8312;SDS011;4194;43.408;24.626;2022-08-21T15:21:14;8.53;;;4.37;;
8312;SDS011;4194;43.408;24.626;2022-08-21T15:23:40;12.07;;;4.67;;
8312;SDS011;4194;43.408;24.626;2022-08-21T15:26:06;6.10;;;4.17;;
8312;SDS011;4194;43.408;24.626;2022-08-21T15:28:33;4.73;;;4.23;;
8312;SDS011;4194;43.408;24.626;2022-08-21T15:31:00;8.43;;;4.50;;
8312;SDS011;4194;43.408;24.626;2022-08-21T15:33:26;7.63;;;4.57;;
8312;SDS011;4194;43.408;24.626;2022-08-21T15:35:52;9.43;;;4.67;;
8312;SDS011;4194;43.408;24.626;2022-08-21T15:38:18;9.60;;;4.80;;
8312;SDS011;4194;43.408;24.626;2022-08-21T15:40:44;10.13;;;4.80;;
8312;SDS011;4194;43.408;24.626;2022-08-21T15:43:20;12.17;;;5.07;;
8312;SDS011;4194;43.408;24.626;2022-08-21T15:45:47;9.47;;;4.77;;
8312;SDS011;4194;43.408;24.626;2022-08-21T15:48:13;11.87;;;4.80;;
8312;SDS011;4194;43.408;24.626;2022-08-21T15:50:43;7.53;;;4.20;;
8312;SDS011;4194;43.408;24.626;2022-08-21T15:53:09;6.50;;;4.50;;
8312;SDS011;4194;43.408;24.626;2022-08-21T15:55:35;8.77;;;4.77;;
8312;SDS011;4194;43.408;24.626;2022-08-21T15:58:01;9.90;;;4.63;;
8312;SDS011;4194;43.408;24.626;2022-08-21T16:00:29;9.07;;;5.00;;
8312;SDS011;4194;43.408;24.626;2022-08-21T16:02:58;9.83;;;4.90;;
8312;SDS011;4194;43.408;24.626;2022-08-21T16:05:24;11.67;;;4.47;;
8312;SDS011;4194;43.408;24.626;2022-08-21T16:07:51;6.03;;;4.23;;
8312;SDS011;4194;43.408;24.626;2022-08-21T16:10:18;8.57;;;4.30;;
8312;SDS011;4194;43.408;24.626;2022-08-21T16:12:47;7.87;;;3.57;;
8312;SDS011;4194;43.408;24.626;2022-08-21T16:15:15;8.97;;;4.67;;
8312;SDS011;4194;43.408;24.626;2022-08-21T16:17:42;9.47;;;4.43;;
8312;SDS011;4194;43.408;24.626;2022-08-21T16:20:13;5.03;;;4.20;;
8312;SDS011;4194;43.408;24.626;2022-08-21T16:22:42;8.53;;;4.27;;
8312;SDS011;4194;43.408;24.626;2022-08-21T16:25:08;13.07;;;4.60;;
8312;SDS011;4194;43.408;24.626;2022-08-21T16:27:34;11.00;;;4.67;;
8312;SDS011;4194;43.408;24.626;2022-08-21T16:30:01;7.20;;;3.97;;
8312;SDS011;4194;43.408;24.626;2022-08-21T16:32:28;10.33;;;4.60;;
8312;SDS011;4194;43.408;24.626;2022-08-21T16:34:53;10.07;;;4.27;;
8312;SDS011;4194;43.408;24.626;2022-08-21T16:37:20;9.37;;;4.40;;
8312;SDS011;4194;43.408;24.626;2022-08-21T16:39:46;6.67;;;4.37;;
8312;SDS011;4194;43.408;24.626;2022-08-21T16:42:13;10.57;;;4.53;;
8312;SDS011;4194;43.408;24.626;2022-08-21T16:44:45;6.57;;;4.23;;
8312;SDS011;4194;43.408;24.626;2022-08-21T16:47:11;7.43;;;4.40;;